Time;durP1;ratioP1;P1;durP2;ratioP2;P2;SDS_P1;SDS_P2;PMS_P1;PMS_P2;Temp;Humidity;BMP_temperature;BMP_pressure;BME280_temperature;BME280_humidity;BME280_pressure;Samples;Min_cycle;Max_cycle;Signal;HPM_P1;HPM_P2
2023/05/05 00:00:53;;;;;;;38.50;36.47;;;11.00;99.90;;;;;;5078725;28;20044;-67
2023/05/05 00:03:23;;;;;;;38.95;36.65;;;10.90;99.90;;;;;;5079900;28;20113;-68
2023/05/05 00:05:50;;;;;;;37.67;35.30;;;11.00;99.90;;;;;;5085787;28;20089;-67
2023/05/05 00:08:17;;;;;;;39.30;36.80;;;11.00;99.90;;;;;;5087873;28;20055;-67
2023/05/05 00:10:50;;;;;;;38.08;36.03;;;11.00;99.90;;;;;;5085528;28;20089;-67
2023/05/05 00:13:17;;;;;;;34.97;32.72;;;11.00;99.90;;;;;;5069578;28;20127;-67
2023/05/05 00:15:44;;;;;;;35.17;32.95;;;11.00;99.90;;;;;;5079078;28;20032;-67
2023/05/05 00:18:10;;;;;;;38.45;36.05;;;11.00;99.90;;;;;;5086664;28;20450;-67
2023/05/05 00:20:36;;;;;;;35.53;33.42;;;11.00;99.90;;;;;;5082010;28;20047;-67
2023/05/05 00:23:02;;;;;;;37.92;35.72;;;11.00;99.90;;;;;;5083526;28;20033;-67
2023/05/05 00:25:28;;;;;;;36.63;34.53;;;11.00;99.90;;;;;;5079614;28;20070;-67
2023/05/05 00:27:54;;;;;;;36.28;33.97;;;11.00;99.90;;;;;;5086154;28;20057;-67
2023/05/05 00:30:20;;;;;;;39.22;36.78;;;11.10;99.90;;;;;;5071978;28;20044;-67
2023/05/05 00:32:50;;;;;;;37.92;35.72;;;11.10;99.90;;;;;;5088976;28;20501;-67
2023/05/05 00:35:18;;;;;;;37.30;35.05;;;11.10;99.90;;;;;;5080101;28;20238;-66
2023/05/05 00:37:44;;;;;;;37.03;34.38;;;11.10;99.90;;;;;;5090188;28;20097;-67
2023/05/05 00:40:10;;;;;;;35.55;33.47;;;11.10;99.90;;;;;;5071358;28;20035;-67
2023/05/05 00:42:49;;;;;;;35.72;33.53;;;11.10;99.90;;;;;;5087579;28;20448;-66
2023/05/05 00:45:16;;;;;;;35.80;33.60;;;11.20;99.90;;;;;;5083567;28;20062;-67
2023/05/05 00:47:56;;;;;;;34.38;32.38;;;11.20;99.90;;;;;;5071729;28;20089;-67
2023/05/05 00:50:29;;;;;;;36.05;34.05;;;11.10;99.90;;;;;;5089695;28;20079;-67
2023/05/05 00:53:02;;;;;;;36.22;33.88;;;11.20;99.90;;;;;;5083566;28;20138;-67
2023/05/05 00:55:29;;;;;;;35.17;33.13;;;11.20;99.90;;;;;;5084763;28;20051;-66
2023/05/05 00:57:55;;;;;;;35.05;32.78;;;11.10;99.90;;;;;;5070846;28;20379;-67
2023/05/05 01:00:21;;;;;;;35.13;33.03;;;11.10;99.90;;;;;;5089024;28;20046;-66
2023/05/05 01:02:47;;;;;;;35.20;33.15;;;11.20;99.90;;;;;;5071884;28;20122;-67
2023/05/05 01:05:14;;;;;;;36.80;34.55;;;11.10;99.90;;;;;;5072621;28;20077;-67
2023/05/05 01:08:01;;;;;;;34.90;32.80;;;11.10;99.90;;;;;;5074693;28;20468;-67
2023/05/05 01:10:52;;;;;;;34.95;32.85;;;11.10;99.90;;;;;;5088822;28;20433;-67
2023/05/05 01:13:21;;;;;;;33.42;31.35;;;11.10;99.90;;;;;;5081784;28;20035;-67
2023/05/05 01:15:59;;;;;;;36.67;34.45;;;11.00;99.90;;;;;;5086264;28;20089;-67
2023/05/05 01:18:34;;;;;;;36.15;33.92;;;11.00;99.90;;;;;;5089345;28;20377;-67
2023/05/05 01:21:00;;;;;;;35.38;33.13;;;10.90;99.90;;;;;;5072107;28;20047;-67
2023/05/05 01:23:59;;;;;;;35.67;33.47;;;10.90;99.90;;;;;;5080913;28;20043;-67
2023/05/05 01:27:03;;;;;;;36.13;33.90;;;10.90;99.90;;;;;;5085861;28;20062;-67
2023/05/05 01:30:09;;;;;;;36.25;33.92;;;10.90;99.90;;;;;;5069772;28;20653;-67
2023/05/05 01:32:46;;;;;;;36.40;34.17;;;10.90;99.90;;;;;;5082680;28;20050;-67
2023/05/05 01:35:17;;;;;;;37.40;35.00;;;10.80;99.90;;;;;;5084805;27;20050;-67
2023/05/05 01:38:07;;;;;;;36.58;34.38;;;10.80;99.90;;;;;;5090571;28;20471;-67
2023/05/05 01:40:39;;;;;;;37.35;34.92;;;10.70;99.90;;;;;;5082811;28;20044;-67
2023/05/05 01:43:07;;;;;;;36.53;34.42;;;10.70;99.90;;;;;;5111292;28;20039;-67
2023/05/05 01:45:36;;;;;;;37.17;35.05;;;10.70;99.90;;;;;;5074215;28;20123;-67
2023/05/05 01:48:05;;;;;;;38.00;35.83;;;10.70;99.90;;;;;;5083622;28;20047;-66
2023/05/05 01:50:31;;;;;;;38.30;35.83;;;10.60;99.90;;;;;;5090447;28;20043;-67
2023/05/05 01:52:57;;;;;;;37.70;35.47;;;10.60;99.90;;;;;;5093759;28;20043;-67
2023/05/05 01:55:25;;;;;;;38.55;36.15;;;10.70;99.90;;;;;;5094037;28;20066;-67
2023/05/05 01:57:52;;;;;;;37.35;35.15;;;10.70;99.90;;;;;;5084448;28;20047;-67
2023/05/05 02:00:18;;;;;;;36.78;34.55;;;10.70;99.90;;;;;;5087018;28;20050;-67
2023/05/05 02:02:46;;;;;;;37.92;35.67;;;10.60;99.90;;;;;;5070063;28;20492;-66
2023/05/05 02:05:13;;;;;;;37.55;35.45;;;10.60;99.90;;;;;;5069446;28;20086;-66
2023/05/05 02:07:39;;;;;;;39.58;37.00;;;10.60;99.90;;;;;;5092001;28;20040;-67
2023/05/05 02:10:06;;;;;;;39.22;37.03;;;10.60;99.90;;;;;;5081871;28;20040;-67
2023/05/05 02:12:34;;;;;;;38.67;36.45;;;10.60;99.90;;;;;;5083820;28;20563;-67
2023/05/05 02:15:01;;;;;;;39.67;37.28;;;10.60;99.90;;;;;;5087724;28;20051;-67
2023/05/05 02:17:28;;;;;;;38.75;36.60;;;10.60;99.90;;;;;;5071523;28;20585;-67
2023/05/05 02:19:55;;;;;;;38.10;35.90;;;10.60;99.90;;;;;;5109098;28;20146;-66
2023/05/05 02:22:21;;;;;;;37.10;34.72;;;10.60;99.90;;;;;;5092839;28;20050;-67
2023/05/05 02:24:47;;;;;;;39.35;37.00;;;10.60;99.90;;;;;;5098983;28;20813;-67
2023/05/05 02:27:15;;;;;;;37.47;35.13;;;10.60;99.90;;;;;;5092126;28;20055;-67
2023/05/05 02:29:55;;;;;;;37.95;35.72;;;10.60;99.90;;;;;;5081651;28;20066;-67
2023/05/05 02:32:32;;;;;;;37.55;35.20;;;10.60;99.90;;;;;;5071664;28;20122;-67
2023/05/05 02:35:07;;;;;;;37.10;34.72;;;10.60;99.90;;;;;;5071772;28;20042;-67
2023/05/05 02:37:34;;;;;;;37.15;34.75;;;10.60;99.90;;;;;;5085493;28;20044;-67
2023/05/05 02:40:03;;;;;;;37.67;35.35;;;10.70;99.90;;;;;;5087722;28;20051;-67
2023/05/05 02:42:40;;;;;;;38.65;35.88;;;10.70;99.90;;;;;;5080720;28;20054;-67
2023/05/05 02:45:16;;;;;;;37.67;35.50;;;10.70;99.90;;;;;;5080918;28;20032;-66
2023/05/05 02:47:41;;;;;;;36.85;34.72;;;10.60;99.90;;;;;;5098280;28;20423;-67
2023/05/05 02:50:08;;;;;;;38.45;36.20;;;10.60;99.90;;;;;;5084523;28;20061;-67
2023/05/05 02:52:34;;;;;;;36.75;34.63;;;10.60;99.90;;;;;;5082442;28;20042;-67
2023/05/05 02:55:01;;;;;;;36.92;34.80;;;10.60;99.90;;;;;;5088750;28;20039;-67
2023/05/05 02:57:46;;;;;;;37.92;35.65;;;10.60;99.90;;;;;;5076581;28;20055;-67
2023/05/05 03:00:12;;;;;;;;;;;10.60;99.90;;;;;;5081094;28;20090;-67
2023/05/05 03:03:15;;;;;;;35.47;33.47;;;10.70;99.90;;;;;;5083679;28;19923;-67
2023/05/05 03:05:50;;;;;;;35.90;33.72;;;10.70;99.90;;;;;;5084614;28;20043;-66
2023/05/05 03:08:24;;;;;;;37.17;34.90;;;10.60;99.90;;;;;;5091004;28;20465;-67
2023/05/05 03:11:00;;;;;;;38.28;35.97;;;10.50;99.90;;;;;;5087867;28;20380;-67
2023/05/05 03:13:28;;;;;;;38.03;35.67;;;10.50;99.90;;;;;;5085986;28;20047;-67
2023/05/05 03:15:55;;;;;;;39.80;37.13;;;10.40;99.90;;;;;;5105113;28;20407;-66
2023/05/05 03:18:22;;;;;;;40.63;38.10;;;10.40;99.90;;;;;;5084032;28;20130;-67
2023/05/05 03:20:49;;;;;;;39.17;36.97;;;10.40;99.90;;;;;;5088604;28;20088;-67
2023/05/05 03:23:17;;;;;;;39.78;37.22;;;10.40;99.90;;;;;;5067369;28;20065;-67
2023/05/05 03:25:49;;;;;;;41.78;38.85;;;10.40;99.90;;;;;;5087820;28;20094;-67
2023/05/05 03:28:15;;;;;;;38.70;36.40;;;10.30;99.90;;;;;;5079235;28;20039;-66
2023/05/05 03:30:41;;;;;;;41.05;38.55;;;10.30;99.90;;;;;;5091177;28;20031;-67
2023/05/05 03:33:09;;;;;;;41.13;38.72;;;10.30;99.90;;;;;;5083169;28;20050;-67
2023/05/05 03:35:34;;;;;;;40.33;37.78;;;10.30;99.90;;;;;;5093723;28;20052;-66
2023/05/05 03:38:00;;;;;;;41.55;39.05;;;10.30;99.90;;;;;;5069167;28;20047;-66
2023/05/05 03:40:26;;;;;;;39.97;37.58;;;10.30;99.90;;;;;;5084588;28;20497;-66
2023/05/05 03:42:51;;;;;;;40.67;38.28;;;10.30;99.90;;;;;;5080262;28;20383;-67
2023/05/05 03:45:17;;;;;;;40.50;38.08;;;10.30;99.90;;;;;;5088512;28;20132;-67
2023/05/05 03:47:42;;;;;;;39.45;37.05;;;10.40;99.90;;;;;;5088321;28;20127;-67
2023/05/05 03:50:08;;;;;;;42.28;39.78;;;10.40;99.90;;;;;;5080846;28;20063;-67
2023/05/05 03:52:34;;;;;;;41.08;38.47;;;10.50;99.90;;;;;;5074581;28;20728;-67
2023/05/05 03:55:00;;;;;;;40.38;37.85;;;10.50;99.90;;;;;;5076745;28;20419;-67
2023/05/05 03:57:25;;;;;;;46.80;44.22;;;10.50;99.90;;;;;;5071577;28;20043;-67
2023/05/05 03:59:51;;;;;;;42.60;39.97;;;10.50;99.90;;;;;;5082360;28;20032;-66
2023/05/05 04:02:17;;;;;;;43.30;40.78;;;10.50;99.90;;;;;;5089701;28;20043;-67
2023/05/05 04:04:43;;;;;;;51.22;48.25;;;10.50;99.90;;;;;;5081152;28;20058;-67
2023/05/05 04:07:10;;;;;;;56.72;53.55;;;10.50;99.90;;;;;;5082198;28;20081;-66
2023/05/05 04:09:35;;;;;;;74.68;70.95;;;10.50;99.90;;;;;;5093721;28;20514;-67
2023/05/05 04:12:01;;;;;;;82.72;78.75;;;10.50;99.90;;;;;;5090099;28;20050;-66
2023/05/05 04:14:27;;;;;;;99.15;94.20;;;10.40;99.90;;;;;;5064287;28;20184;-67
2023/05/05 04:16:53;;;;;;;107.00;102.05;;;10.30;99.90;;;;;;5069754;28;20125;-67
2023/05/05 04:19:19;;;;;;;124.63;118.75;;;10.30;99.90;;;;;;5091534;28;20398;-67
2023/05/05 04:21:44;;;;;;;119.47;114.07;;;10.20;99.90;;;;;;5088537;28;20043;-67
2023/05/05 04:24:10;;;;;;;115.95;110.70;;;10.10;99.90;;;;;;5081938;28;20043;-67
2023/05/05 04:26:36;;;;;;;180.10;171.93;;;10.00;99.90;;;;;;5106844;28;20559;-67
2023/05/05 04:29:01;;;;;;;174.02;165.98;;;9.90;99.90;;;;;;5107954;28;20043;-67
2023/05/05 04:31:27;;;;;;;121.20;115.13;;;9.90;99.90;;;;;;5073939;28;20046;-67
2023/05/05 04:33:53;;;;;;;94.57;90.18;;;9.80;99.90;;;;;;5092401;27;20045;-67
2023/05/05 04:36:18;;;;;;;101.90;96.57;;;9.80;99.90;;;;;;5083480;28;20109;-67
2023/05/05 04:38:44;;;;;;;60.13;57.00;;;9.70;99.90;;;;;;5088637;28;20556;-67
2023/05/05 04:41:10;;;;;;;68.97;65.28;;;9.70;99.90;;;;;;5066140;28;20118;-68
2023/05/05 04:43:36;;;;;;;68.53;64.82;;;9.70;99.90;;;;;;5083417;28;20032;-67
2023/05/05 04:46:02;;;;;;;62.13;58.88;;;9.60;99.90;;;;;;5082522;28;20112;-67
2023/05/05 04:48:27;;;;;;;64.07;60.15;;;9.50;99.90;;;;;;5080192;28;20047;-67
2023/05/05 04:50:53;;;;;;;72.28;68.18;;;9.50;99.90;;;;;;5087866;28;20399;-67
2023/05/05 04:53:19;;;;;;;66.82;63.10;;;9.50;99.90;;;;;;5115796;27;20105;-67
2023/05/05 04:55:44;;;;;;;60.38;57.00;;;9.40;99.90;;;;;;5086534;28;20387;-67
2023/05/05 04:58:10;;;;;;;69.10;65.30;;;9.40;99.90;;;;;;5088797;28;20104;-67
2023/05/05 05:00:36;;;;;;;67.35;63.45;;;9.40;99.90;;;;;;5071280;28;20051;-67
2023/05/05 05:03:03;;;;;;;54.88;51.83;;;9.40;99.90;;;;;;5081968;28;20040;-67
2023/05/05 05:05:28;;;;;;;58.72;55.33;;;9.40;99.90;;;;;;5080905;28;20046;-68
2023/05/05 05:07:54;;;;;;;62.58;58.90;;;9.40;99.90;;;;;;5079313;28;20333;-68
2023/05/05 05:10:20;;;;;;;57.67;54.58;;;9.40;99.90;;;;;;5058791;28;20044;-68
2023/05/05 05:12:46;;;;;;;56.78;53.40;;;9.40;99.90;;;;;;5067211;28;20384;-68
2023/05/05 05:15:12;;;;;;;57.03;53.60;;;9.40;99.90;;;;;;5071888;28;20052;-68
2023/05/05 05:17:38;;;;;;;62.75;59.15;;;9.40;99.90;;;;;;5072100;28;20057;-68
2023/05/05 05:20:04;;;;;;;65.38;61.80;;;9.30;99.90;;;;;;5088269;28;20090;-68
2023/05/05 05:22:30;;;;;;;59.08;55.72;;;9.30;99.90;;;;;;5088454;28;20051;-68
2023/05/05 05:24:56;;;;;;;56.72;53.63;;;9.30;99.90;;;;;;5081781;28;20047;-68
2023/05/05 05:27:21;;;;;;;53.05;49.83;;;9.30;99.90;;;;;;5058262;28;20054;-68
2023/05/05 05:29:47;;;;;;;60.08;56.60;;;9.30;99.90;;;;;;5079092;28;20051;-68
2023/05/05 05:32:12;;;;;;;55.78;52.72;;;9.30;99.90;;;;;;5083247;28;20429;-68
2023/05/05 05:34:38;;;;;;;58.72;55.22;;;9.40;99.90;;;;;;5063887;28;20067;-68
2023/05/05 05:37:04;;;;;;;60.00;56.60;;;9.50;99.90;;;;;;5079435;28;20452;-68
2023/05/05 05:39:29;;;;;;;59.50;56.00;;;9.70;99.90;;;;;;5080640;28;20046;-68
2023/05/05 05:41:55;;;;;;;60.25;56.92;;;9.80;99.90;;;;;;5080814;28;20585;-68
2023/05/05 05:44:20;;;;;;;61.60;58.22;;;10.00;99.90;;;;;;5092116;28;20077;-68
2023/05/05 05:46:46;;;;;;;57.30;54.10;;;10.10;99.90;;;;;;5079457;28;20035;-68
2023/05/05 05:49:11;;;;;;;54.53;51.33;;;10.30;99.90;;;;;;5069474;28;20436;-68
2023/05/05 05:51:37;;;;;;;68.45;64.82;;;10.50;99.90;;;;;;5082933;28;20036;-68
2023/05/05 05:54:03;;;;;;;68.85;65.03;;;10.60;99.90;;;;;;5068810;28;20045;-69
2023/05/05 05:56:28;;;;;;;53.40;50.03;;;10.70;99.90;;;;;;5079520;28;20080;-68
2023/05/05 05:58:54;;;;;;;46.00;43.08;;;10.80;99.90;;;;;;5083091;28;20061;-68
2023/05/05 06:01:20;;;;;;;43.63;40.92;;;10.90;99.90;;;;;;5088725;28;20074;-68
2023/05/05 06:03:45;;;;;;;56.85;53.38;;;11.00;99.90;;;;;;5083630;28;20035;-68
2023/05/05 06:06:11;;;;;;;49.80;46.92;;;11.00;99.90;;;;;;5090921;28;20039;-68
2023/05/05 06:08:36;;;;;;;56.63;53.42;;;11.00;99.90;;;;;;5080520;28;20039;-68
2023/05/05 06:11:02;;;;;;;49.60;46.65;;;11.00;99.90;;;;;;5077059;28;20079;-68
2023/05/05 06:13:27;;;;;;;52.72;49.63;;;11.00;99.90;;;;;;5088367;28;20031;-68
2023/05/05 06:15:53;;;;;;;70.28;66.63;;;11.20;99.90;;;;;;5089421;28;20046;-68
2023/05/05 06:18:19;;;;;;;78.20;74.20;;;11.20;99.90;;;;;;5088526;28;20036;-68
2023/05/05 06:20:48;;;;;;;82.43;78.32;;;11.30;99.90;;;;;;5087193;28;20119;-68
2023/05/05 06:23:13;;;;;;;72.88;69.28;;;11.40;99.90;;;;;;5080964;28;20152;-68
2023/05/05 06:25:39;;;;;;;86.35;82.05;;;11.40;99.90;;;;;;5086925;28;20151;-68
2023/05/05 06:28:05;;;;;;;80.88;76.82;;;11.40;99.90;;;;;;5084048;28;20059;-68
2023/05/05 06:30:30;;;;;;;70.88;66.97;;;11.40;99.90;;;;;;5091161;28;20027;-68
2023/05/05 06:32:56;;;;;;;92.93;88.43;;;11.50;99.90;;;;;;5081337;28;20054;-68
2023/05/05 06:35:22;;;;;;;92.63;88.18;;;11.60;99.90;;;;;;5079643;28;20043;-68
2023/05/05 06:37:47;;;;;;;75.20;71.50;;;11.80;99.90;;;;;;5091853;28;20495;-68
2023/05/05 06:40:13;;;;;;;94.20;89.68;;;11.90;99.90;;;;;;5099215;28;20040;-68
2023/05/05 06:42:38;;;;;;;97.00;92.35;;;11.90;99.90;;;;;;5108670;28;20042;-68
2023/05/05 06:45:05;;;;;;;90.55;86.18;;;12.10;99.90;;;;;;5091649;28;20120;-68
2023/05/05 06:47:30;;;;;;;94.97;90.40;;;12.50;99.90;;;;;;5086530;28;20039;-68
2023/05/05 06:49:56;;;;;;;79.90;75.85;;;13.30;99.90;;;;;;5081430;28;20077;-68
2023/05/05 06:52:22;;;;;;;82.47;78.50;;;14.20;99.90;;;;;;5077722;28;20066;-68
2023/05/05 06:54:47;;;;;;;95.03;90.35;;;15.20;99.90;;;;;;5109990;28;20043;-68
2023/05/05 06:57:13;;;;;;;91.47;87.00;;;15.90;99.90;;;;;;5088260;28;20078;-68
2023/05/05 06:59:38;;;;;;;76.97;72.95;;;16.50;99.90;;;;;;5102732;28;20043;-68
2023/05/05 07:02:04;;;;;;;96.20;91.38;;;16.90;99.90;;;;;;5084360;28;20035;-69
2023/05/05 07:04:30;;;;;;;131.55;125.68;;;17.10;99.90;;;;;;5078974;28;20050;-69
2023/05/05 07:06:57;;;;;;;140.57;134.27;;;17.20;99.90;;;;;;5087768;28;20039;-68
2023/05/05 07:09:23;;;;;;;151.75;144.80;;;16.80;99.90;;;;;;5089376;28;20074;-69
2023/05/05 07:11:48;;;;;;;180.63;172.45;;;17.20;99.90;;;;;;5090320;28;20063;-68
2023/05/05 07:14:14;;;;;;;178.55;170.88;;;17.90;99.90;;;;;;5088142;28;20031;-69
2023/05/05 07:16:39;;;;;;;153.10;146.30;;;18.50;99.90;;;;;;5071634;28;20136;-68
2023/05/05 07:19:05;;;;;;;125.00;119.03;;;18.40;99.90;;;;;;5068916;27;20114;-68
2023/05/05 07:21:34;;;;;;;104.47;99.65;;;17.80;99.90;;;;;;5082863;28;21031;-68
2023/05/05 07:24:01;;;;;;;102.75;97.85;;;17.00;99.90;;;;;;5067553;28;20081;-68
2023/05/05 07:26:26;;;;;;;74.95;71.15;;;16.50;99.90;;;;;;5086268;28;20058;-69
2023/05/05 07:28:54;;;;;;;97.38;92.72;;;16.20;99.90;;;;;;5089391;28;20035;-68
2023/05/05 07:31:20;;;;;;;89.32;85.07;;;15.90;99.90;;;;;;5086730;27;20447;-68
2023/05/05 07:33:46;;;;;;;76.43;72.38;;;15.70;99.90;;;;;;5074580;28;20122;-69
2023/05/05 07:36:12;;;;;;;85.22;81.15;;;15.50;99.90;;;;;;5087431;28;20116;-68
2023/05/05 07:38:37;;;;;;;104.03;99.18;;;15.40;99.90;;;;;;5085717;28;20122;-69
2023/05/05 07:41:03;;;;;;;105.22;100.13;;;15.30;99.90;;;;;;5109118;28;20100;-68
2023/05/05 07:43:29;;;;;;;79.22;75.07;;;15.20;99.90;;;;;;5065854;28;20039;-68
2023/05/05 07:45:55;;;;;;;95.78;91.25;;;15.20;99.90;;;;;;5089435;28;20035;-68
2023/05/05 07:48:20;;;;;;;94.68;90.00;;;15.30;99.90;;;;;;5104719;28;20557;-69
2023/05/05 07:50:46;;;;;;;119.65;113.97;;;15.40;99.90;;;;;;5088907;28;20044;-68
2023/05/05 07:53:11;;;;;;;122.70;116.85;;;15.60;99.90;;;;;;5063871;28;20386;-68
2023/05/05 07:55:37;;;;;;;89.15;84.70;;;15.80;99.90;;;;;;5072657;28;20054;-69
2023/05/05 07:58:03;;;;;;;137.38;131.10;;;15.90;99.90;;;;;;5070999;28;20040;-68
2023/05/05 08:00:28;;;;;;;157.57;150.25;;;16.00;99.90;;;;;;5086847;27;20480;-68
2023/05/05 08:02:54;;;;;;;175.50;167.77;;;16.00;99.90;;;;;;5088436;28;20062;-68
2023/05/05 08:05:20;;;;;;;141.35;134.82;;;16.00;99.90;;;;;;5083182;28;20048;-69
2023/05/05 08:07:45;;;;;;;122.00;116.07;;;16.00;99.90;;;;;;5106024;27;20108;-68
2023/05/05 08:10:11;;;;;;;129.50;123.38;;;16.00;99.90;;;;;;5083787;28;20136;-68
2023/05/05 08:12:38;;;;;;;169.60;161.98;;;16.10;99.90;;;;;;5101641;28;20044;-68
2023/05/05 08:15:04;;;;;;;193.23;184.40;;;16.10;99.90;;;;;;5087301;28;20043;-68
2023/05/05 08:17:50;;;;;;;73.60;69.82;;;16.20;99.90;;;;;;5082028;28;20047;-69
2023/05/05 08:20:19;;;;;;;140.35;133.65;;;16.50;99.90;;;;;;5062193;28;20047;-68
2023/05/05 08:22:46;;;;;;;89.45;84.68;;;16.60;99.90;;;;;;5081428;28;20050;-69
2023/05/05 08:25:12;;;;;;;189.32;180.88;;;16.70;99.90;;;;;;5093791;28;20063;-68
2023/05/05 08:27:39;;;;;;;103.13;98.07;;;16.80;99.90;;;;;;5083379;28;20039;-68
2023/05/05 08:30:05;;;;;;;42.88;40.25;;;17.00;99.90;;;;;;5083262;28;20043;-68
2023/05/05 08:32:31;;;;;;;72.85;68.80;;;17.20;99.90;;;;;;5069523;28;20123;-68
2023/05/05 08:34:57;;;;;;;130.50;124.05;;;17.20;99.90;;;;;;5079392;28;20127;-69
2023/05/05 08:37:23;;;;;;;95.15;90.20;;;17.20;99.90;;;;;;5078617;28;20036;-68
2023/05/05 08:39:48;;;;;;;98.72;93.68;;;17.30;99.90;;;;;;5083179;28;20040;-68
2023/05/05 08:42:14;;;;;;;87.57;83.07;;;17.70;99.90;;;;;;5082109;28;20067;-68
2023/05/05 08:44:40;;;;;;;95.20;90.13;;;18.00;99.90;;;;;;5084316;28;20158;-68
2023/05/05 08:47:09;;;;;;;78.57;74.32;;;18.10;99.90;;;;;;5089715;28;20499;-68
2023/05/05 08:49:44;;;;;;;132.93;126.60;;;18.70;99.90;;;;;;5066036;28;20039;-69
2023/05/05 08:52:14;;;;;;;38.67;35.83;;;19.60;99.90;;;;;;5079593;28;20039;-68
2023/05/05 08:54:53;;;;;;;45.45;42.38;;;20.50;99.90;;;;;;5088972;28;20130;-69
2023/05/05 08:57:27;;;;;;;77.22;72.82;;;21.10;99.90;;;;;;5077744;28;20046;-69
2023/05/05 08:59:53;;;;;;;63.77;60.07;;;21.60;99.90;;;;;;5082999;28;20075;-68
2023/05/05 09:02:22;;;;;;;114.32;108.30;;;21.90;99.90;;;;;;5068951;28;20044;-69
2023/05/05 09:04:50;;;;;;;33.75;31.33;;;22.30;99.90;;;;;;5086842;28;20126;-69
2023/05/05 09:07:16;;;;;;;65.57;61.67;;;22.50;99.90;;;;;;5064905;28;20039;-68
2023/05/05 09:09:42;;;;;;;103.35;98.15;;;22.80;99.90;;;;;;5085033;28;20381;-69
2023/05/05 09:12:07;;;;;;;106.65;101.45;;;23.00;99.90;;;;;;5089299;28;20074;-69
2023/05/05 09:14:33;;;;;;;101.20;96.15;;;22.60;99.90;;;;;;5077727;28;20083;-68
2023/05/05 09:17:00;;;;;;;118.30;112.63;;;21.90;99.90;;;;;;5074302;28;20050;-69
2023/05/05 09:19:26;;;;;;;121.25;115.50;;;21.90;99.90;;;;;;5086471;28;20055;-69
2023/05/05 09:21:51;;;;;;;60.85;57.33;;;22.40;99.90;;;;;;5081794;28;20040;-69
2023/05/05 09:24:17;;;;;;;79.25;75.13;;;22.70;99.90;;;;;;5079782;28;20040;-69
2023/05/05 09:26:47;;;;;;;49.03;46.08;;;22.80;99.90;;;;;;5058072;28;20063;-69
2023/05/05 09:29:20;;;;;;;46.55;43.55;;;22.80;99.90;;;;;;5072136;28;20400;-68
2023/05/05 09:32:04;;;;;;;28.60;26.20;;;22.60;99.90;;;;;;5068063;28;20522;-68
2023/05/05 09:34:31;;;;;;;123.63;117.50;;;21.90;99.90;;;;;;5089055;28;20069;-68
2023/05/05 09:36:57;;;;;;;37.67;35.17;;;21.50;99.90;;;;;;5089040;28;20536;-68
2023/05/05 09:39:23;;;;;;;110.78;105.07;;;21.60;99.90;;;;;;5085538;28;20048;-68
2023/05/05 09:41:48;;;;;;;89.95;85.35;;;21.70;99.90;;;;;;5085000;28;20372;-68
2023/05/05 09:44:17;;;;;;;67.32;63.45;;;21.90;99.90;;;;;;5084426;28;20031;-68
2023/05/05 09:46:50;;;;;;;55.22;51.92;;;22.10;99.90;;;;;;5064136;28;20036;-68
2023/05/05 09:49:22;;;;;;;51.33;47.88;;;22.20;99.90;;;;;;5061811;28;20050;-68
2023/05/05 09:51:48;;;;;;;60.65;56.65;;;22.40;99.90;;;;;;5078371;28;20043;-68
2023/05/05 09:54:22;;;;;;;36.88;33.97;;;22.50;99.90;;;;;;5069779;28;20048;-69
2023/05/05 09:56:49;;;;;;;47.55;44.05;;;22.50;99.90;;;;;;5090985;28;20059;-68
2023/05/05 09:59:15;;;;;;;43.42;40.33;;;22.40;99.90;;;;;;5111638;27;20051;-68
2023/05/05 10:01:42;;;;;;;35.30;32.38;;;22.40;99.90;;;;;;5091729;28;20505;-69
2023/05/05 10:04:25;;;;;;;37.80;34.70;;;22.20;99.90;;;;;;5073479;28;20043;-68
2023/05/05 10:06:50;;;;;;;82.30;77.10;;;21.90;99.90;;;;;;5104691;27;20517;-69
2023/05/05 10:09:16;;;;;;;53.35;49.58;;;21.70;99.90;;;;;;5098503;28;20132;-69
2023/05/05 10:11:45;;;;;;;44.13;40.78;;;21.90;99.90;;;;;;5082632;28;20502;-68
2023/05/05 10:14:16;;;;;;;39.63;36.50;;;22.30;99.90;;;;;;5092068;28;20054;-69
2023/05/05 10:16:53;;;;;;;34.15;30.85;;;22.40;99.90;;;;;;5088983;28;20104;-69
2023/05/05 10:19:21;;;;;;;35.75;32.70;;;22.30;99.90;;;;;;5070015;28;20048;-68
2023/05/05 10:21:51;;;;;;;63.05;58.70;;;22.10;99.90;;;;;;5082616;28;20044;-68
2023/05/05 10:24:33;;;;;;;62.42;58.35;;;22.00;99.90;;;;;;5080048;28;20040;-68
2023/05/05 10:27:02;;;;;;;49.00;45.45;;;22.00;99.90;;;;;;5080211;28;20090;-68
2023/05/05 10:29:49;;;;;;;33.22;30.25;;;22.00;99.90;;;;;;5083683;28;20063;-68
2023/05/05 10:32:36;;;;;;;42.53;39.15;;;22.10;99.90;;;;;;5084016;28;20474;-68
2023/05/05 10:35:05;;;;;;;75.60;71.03;;;22.20;99.90;;;;;;5072518;28;20043;-68
2023/05/05 10:37:31;;;;;;;75.15;70.90;;;22.30;99.90;;;;;;5083323;28;20461;-68
2023/05/05 10:39:57;;;;;;;45.63;42.40;;;22.60;99.90;;;;;;5074881;28;20390;-69
2023/05/05 10:42:23;;;;;;;28.30;25.77;;;22.70;99.90;;;;;;5085364;28;20113;-68
2023/05/05 10:44:50;;;;;;;31.88;29.00;;;22.70;99.90;;;;;;5058320;28;20473;-69
2023/05/05 10:47:20;;;;;;;34.53;31.60;;;22.60;99.90;;;;;;5077843;28;20044;-68
2023/05/05 10:50:02;;;;;;;25.00;22.55;;;22.50;99.90;;;;;;5055616;27;20039;-68
2023/05/05 10:52:39;;;;;;;52.20;48.60;;;22.40;99.90;;;;;;5074617;28;20051;-68
2023/05/05 10:55:21;;;;;;;28.40;25.95;;;22.40;99.90;;;;;;5081301;28;20094;-69
2023/05/05 10:57:52;;;;;;;26.17;23.77;;;22.40;99.90;;;;;;5078914;28;20047;-69
2023/05/05 11:00:47;;;;;;;24.35;22.05;;;22.30;99.90;;;;;;5079344;27;20105;-69
2023/05/05 11:03:15;;;;;;;21.23;19.25;;;22.30;99.90;;;;;;5069152;28;20423;-68
2023/05/05 11:06:03;;;;;;;24.33;21.92;;;22.20;99.90;;;;;;5084386;28;20054;-68
2023/05/05 11:08:40;;;;;;;24.73;22.60;;;22.30;99.90;;;;;;5087793;28;20042;-69
2023/05/05 11:11:09;;;;;;;24.50;22.45;;;22.30;99.90;;;;;;5067719;28;20027;-69
2023/05/05 11:13:36;;;;;;;22.92;20.75;;;22.30;99.90;;;;;;5073961;28;20040;-69
2023/05/05 11:16:02;;;;;;;32.70;30.40;;;22.10;99.90;;;;;;5083883;28;20036;-68
2023/05/05 11:18:35;;;;;;;27.27;25.08;;;22.20;99.90;;;;;;5072433;28;20069;-68
2023/05/05 11:21:02;;;;;;;24.75;22.48;;;22.20;99.90;;;;;;5104405;28;20040;-68
2023/05/05 11:23:28;;;;;;;25.83;23.73;;;22.20;99.90;;;;;;5082339;28;20051;-68
2023/05/05 11:25:56;;;;;;;23.73;21.60;;;22.30;99.90;;;;;;5080417;28;20048;-68
2023/05/05 11:28:28;;;;;;;34.60;31.85;;;22.00;99.90;;;;;;5080411;28;20052;-69
2023/05/05 11:30:57;;;;;;;32.50;30.08;;;21.90;99.90;;;;;;5101960;27;20079;-68
2023/05/05 11:33:30;;;;;;;48.42;45.22;;;21.60;99.90;;;;;;5088429;28;20040;-68
2023/05/05 11:36:01;;;;;;;40.42;37.63;;;21.40;99.90;;;;;;5085523;28;20049;-68
2023/05/05 11:38:51;;;;;;;33.88;31.42;;;21.50;99.90;;;;;;5070673;28;20039;-69
2023/05/05 11:41:37;;;;;;;55.13;51.70;;;21.40;99.90;;;;;;5090988;28;20043;-68
2023/05/05 11:44:17;;;;;;;52.90;49.75;;;21.30;99.90;;;;;;5082012;28;20375;-69
2023/05/05 11:46:51;;;;;;;52.50;49.40;;;21.20;99.90;;;;;;5091179;28;20042;-68
2023/05/05 11:49:27;;;;;;;52.72;49.78;;;21.10;99.90;;;;;;5070667;28;20066;-68
2023/05/05 11:52:06;;;;;;;61.10;57.55;;;21.10;99.90;;;;;;5077162;28;20040;-69
2023/05/05 11:54:34;;;;;;;51.22;48.30;;;21.10;99.90;;;;;;5098682;27;20081;-69
2023/05/05 11:57:03;;;;;;;50.15;47.13;;;21.10;99.90;;;;;;5084351;28;20062;-69
2023/05/05 11:59:36;;;;;;;31.65;29.73;;;21.20;99.90;;;;;;5091639;28;20131;-68
2023/05/05 12:02:02;;;;;;;55.17;52.25;;;21.10;99.90;;;;;;5086604;28;20050;-68
2023/05/05 12:04:31;;;;;;;32.22;29.92;;;21.10;99.90;;;;;;5090561;28;20075;-68
2023/05/05 12:06:58;;;;;;;34.67;32.33;;;21.10;99.90;;;;;;5097914;28;20566;-69
2023/05/05 12:09:23;;;;;;;44.63;41.92;;;21.20;99.90;;;;;;5066926;28;20571;-69
2023/05/05 12:11:50;;;;;;;43.03;40.33;;;21.30;99.90;;;;;;5082120;28;20040;-69
2023/05/05 12:14:16;;;;;;;31.88;29.63;;;21.30;99.90;;;;;;5073224;28;20154;-69
2023/05/05 12:16:56;;;;;;;45.58;42.67;;;21.20;99.90;;;;;;5080395;27;20135;-69
2023/05/05 12:19:22;;;;;;;28.85;26.98;;;21.20;99.90;;;;;;5080418;28;20044;-68
2023/05/05 12:21:48;;;;;;;33.53;31.38;;;21.20;99.90;;;;;;5085042;28;20039;-68
2023/05/05 12:24:13;;;;;;;24.75;23.02;;;21.20;99.90;;;;;;5072217;28;20047;-69
2023/05/05 12:26:40;;;;;;;37.33;34.83;;;21.10;99.90;;;;;;5079932;28;20400;-68
2023/05/05 12:29:06;;;;;;;45.90;42.85;;;21.00;99.90;;;;;;5085993;28;20387;-69
2023/05/05 12:31:35;;;;;;;40.03;37.45;;;20.90;99.90;;;;;;5077466;28;20047;-68
2023/05/05 12:34:02;;;;;;;36.33;34.03;;;20.70;99.90;;;;;;5074516;28;20040;-68